Captiva, FL (33924)

8:41 AM EDT on September 01, 2015 (GMT -0400)
Salty Approach | | Change Station
CLOSE
Current Station
Personal Weather Station
Location: Captiva, FL
Elevation: 13 ft
Nearby Weather Stations

Elev 13 ft 26.60 °N, 82.22 °W | Updated 3 minutes ago

Clear
Clear
83.5 °F
Feels Like 96 °F
N
4.2
Wind Variable Wind from South

Today
High -- | Low -- °F
--% Chance of Precip.
Yesterday
High -- | Low -- °F
Precip. -- in
7:08 AM 7:48 PM
Waning Gibbous, 89% visible
Pressure 30.07 in
Visibility 10.0 miles
Clouds Clear
Heat Index 96 °F
Dew Point 80 °F
Humidity 89%
Rainfall 0.00 in
Snow Depth Not available.
UV 1 out of 12
Pollen 3.10 out of 12
Air Quality Not available.
Flu Activity Not available.
METAR KFMY 011153Z 14004KT 10SM CLR 24/24 A3006 RMK AO2 SLP182 70026 T02440239 10244 20239 51017
Pressure 30.07 in
Visibility 10.0 miles
Clouds Clear
Heat Index 96 °F
Dew Point 80 °F
Humidity 89%
Rainfall 0.00 in
Snow Depth Not available.
UV 1 out of 12
Pollen 3.10 out of 12
Air Quality Not available.
Flu Activity Not available.
METAR KFMY 011153Z 14004KT 10SM CLR 24/24 A3006 RMK AO2 SLP182 70026 T02440239 10244 20239 51017

10-Day Weather Forecast

×

Almanac

Astronomy

Sep. 01, 2015 Rise Set
Actual Time
Civil Twilight
Nautical Twilight
Astronomical Twilight
Moon
Length of Visible Light
Length of Day
Tomorrow will be .
, % of the Moon is Illuminated

Today's Extremes

State Highs State Lows

Community

WunderPhotos

Upload Photos

1,851,510 photos uploaded!

WunderBlogs® & News

Nearby

Air Quality

  Air Quality AQ Index Pollutant
Not available.

Snow Depth

Station Depth Elevation

Earthquake Activity

City Distance Mag. Time & Date
Minimum magnitude displayed is 2.5.

Coastal Water Temperatures

Place Temperature

Stations

Nearby Weather Stations

Station Location Temp. Windchill Dew Point Humidity Wind Precip. Elev Updated Type